sensor_id;sensor_type;location;lat;lon;timestamp;P1;durP1;ratioP1;P2;durP2;ratioP2
66721;SDS011;53633;49.932;10.884;2023-11-22T00:01:09;7.68;;;2.03;;
66721;SDS011;53633;49.932;10.884;2023-11-22T00:03:36;7.13;;;2.38;;
66721;SDS011;53633;49.932;10.884;2023-11-22T00:06:04;7.78;;;2.60;;
66721;SDS011;53633;49.932;10.884;2023-11-22T00:08:31;7.10;;;2.43;;
66721;SDS011;53633;49.932;10.884;2023-11-22T00:10:57;7.97;;;2.10;;
66721;SDS011;53633;49.932;10.884;2023-11-22T00:13:24;7.22;;;2.47;;
66721;SDS011;53633;49.932;10.884;2023-11-22T00:15:51;8.45;;;2.90;;
66721;SDS011;53633;49.932;10.884;2023-11-22T00:18:19;7.05;;;2.35;;
66721;SDS011;53633;49.932;10.884;2023-11-22T00:20:46;7.00;;;2.07;;
66721;SDS011;53633;49.932;10.884;2023-11-22T00:23:13;7.50;;;2.60;;
66721;SDS011;53633;49.932;10.884;2023-11-22T00:25:39;6.78;;;2.50;;
66721;SDS011;53633;49.932;10.884;2023-11-22T00:28:06;6.97;;;2.38;;
66721;SDS011;53633;49.932;10.884;2023-11-22T00:30:33;5.75;;;1.85;;
66721;SDS011;53633;49.932;10.884;2023-11-22T00:33:00;8.23;;;2.40;;
66721;SDS011;53633;49.932;10.884;2023-11-22T00:35:28;7.75;;;2.53;;
66721;SDS011;53633;49.932;10.884;2023-11-22T00:37:54;7.53;;;2.15;;
66721;SDS011;53633;49.932;10.884;2023-11-22T00:40:21;8.35;;;2.15;;
66721;SDS011;53633;49.932;10.884;2023-11-22T00:42:48;8.45;;;2.10;;
66721;SDS011;53633;49.932;10.884;2023-11-22T00:45:15;8.57;;;2.30;;
66721;SDS011;53633;49.932;10.884;2023-11-22T00:47:41;7.65;;;2.45;;
66721;SDS011;53633;49.932;10.884;2023-11-22T00:50:08;9.15;;;2.80;;
66721;SDS011;53633;49.932;10.884;2023-11-22T00:52:37;6.13;;;1.90;;
66721;SDS011;53633;49.932;10.884;2023-11-22T00:55:04;7.40;;;2.40;;
66721;SDS011;53633;49.932;10.884;2023-11-22T00:57:31;7.83;;;2.40;;
66721;SDS011;53633;49.932;10.884;2023-11-22T00:59:57;9.82;;;2.63;;
66721;SDS011;53633;49.932;10.884;2023-11-22T01:02:24;6.20;;;1.75;;
66721;SDS011;53633;49.932;10.884;2023-11-22T01:04:51;7.15;;;2.20;;
66721;SDS011;53633;49.932;10.884;2023-11-22T01:07:18;8.27;;;1.95;;
66721;SDS011;53633;49.932;10.884;2023-11-22T01:09:46;8.03;;;2.00;;
66721;SDS011;53633;49.932;10.884;2023-11-22T01:12:12;7.20;;;2.15;;
66721;SDS011;53633;49.932;10.884;2023-11-22T01:14:39;6.55;;;2.13;;
66721;SDS011;53633;49.932;10.884;2023-11-22T01:17:06;6.82;;;2.20;;
66721;SDS011;53633;49.932;10.884;2023-11-22T01:19:33;7.07;;;1.90;;
66721;SDS011;53633;49.932;10.884;2023-11-22T01:22:00;6.53;;;1.70;;
66721;SDS011;53633;49.932;10.884;2023-11-22T01:24:26;9.85;;;2.28;;
66721;SDS011;53633;49.932;10.884;2023-11-22T01:26:54;7.47;;;2.33;;
66721;SDS011;53633;49.932;10.884;2023-11-22T01:29:21;7.05;;;2.28;;
66721;SDS011;53633;49.932;10.884;2023-11-22T01:31:48;7.05;;;2.20;;
66721;SDS011;53633;49.932;10.884;2023-11-22T01:34:15;6.93;;;2.33;;
66721;SDS011;53633;49.932;10.884;2023-11-22T01:36:41;6.82;;;2.28;;
66721;SDS011;53633;49.932;10.884;2023-11-22T01:39:08;7.72;;;2.40;;
66721;SDS011;53633;49.932;10.884;2023-11-22T01:41:36;7.68;;;2.45;;
66721;SDS011;53633;49.932;10.884;2023-11-22T01:44:04;6.60;;;2.20;;
66721;SDS011;53633;49.932;10.884;2023-11-22T01:46:31;5.70;;;1.60;;
66721;SDS011;53633;49.932;10.884;2023-11-22T01:48:58;6.45;;;2.10;;
66721;SDS011;53633;49.932;10.884;2023-11-22T01:51:26;6.60;;;2.05;;
66721;SDS011;53633;49.932;10.884;2023-11-22T01:53:54;6.13;;;2.00;;
66721;SDS011;53633;49.932;10.884;2023-11-22T01:56:23;7.07;;;2.85;;
66721;SDS011;53633;49.932;10.884;2023-11-22T01:58:52;6.20;;;1.80;;
66721;SDS011;53633;49.932;10.884;2023-11-22T02:01:22;5.38;;;1.58;;
66721;SDS011;53633;49.932;10.884;2023-11-22T02:03:48;6.88;;;2.30;;
66721;SDS011;53633;49.932;10.884;2023-11-22T02:06:16;5.78;;;1.80;;
66721;SDS011;53633;49.932;10.884;2023-11-22T02:08:42;5.65;;;1.73;;
66721;SDS011;53633;49.932;10.884;2023-11-22T02:11:09;6.37;;;2.03;;
66721;SDS011;53633;49.932;10.884;2023-11-22T02:13:36;7.57;;;2.10;;
66721;SDS011;53633;49.932;10.884;2023-11-22T02:16:03;7.32;;;1.95;;
66721;SDS011;53633;49.932;10.884;2023-11-22T02:18:31;6.78;;;2.45;;
66721;SDS011;53633;49.932;10.884;2023-11-22T02:20:58;7.40;;;2.33;;
66721;SDS011;53633;49.932;10.884;2023-11-22T02:23:26;6.27;;;2.10;;
66721;SDS011;53633;49.932;10.884;2023-11-22T02:25:53;6.63;;;2.13;;
66721;SDS011;53633;49.932;10.884;2023-11-22T02:28:20;6.57;;;2.25;;
66721;SDS011;53633;49.932;10.884;2023-11-22T02:30:47;8.45;;;2.67;;
66721;SDS011;53633;49.932;10.884;2023-11-22T02:33:14;7.75;;;2.70;;
66721;SDS011;53633;49.932;10.884;2023-11-22T02:35:40;7.97;;;2.70;;
66721;SDS011;53633;49.932;10.884;2023-11-22T02:38:07;8.55;;;2.40;;
66721;SDS011;53633;49.932;10.884;2023-11-22T02:40:35;8.00;;;2.75;;
66721;SDS011;53633;49.932;10.884;2023-11-22T02:43:02;7.93;;;2.42;;
66721;SDS011;53633;49.932;10.884;2023-11-22T02:45:28;8.20;;;2.95;;
66721;SDS011;53633;49.932;10.884;2023-11-22T02:47:55;10.60;;;3.10;;
66721;SDS011;53633;49.932;10.884;2023-11-22T02:50:22;11.10;;;3.40;;
66721;SDS011;53633;49.932;10.884;2023-11-22T02:52:49;9.27;;;3.00;;
66721;SDS011;53633;49.932;10.884;2023-11-22T02:55:16;9.40;;;2.88;;
66721;SDS011;53633;49.932;10.884;2023-11-22T02:57:44;8.38;;;2.95;;
66721;SDS011;53633;49.932;10.884;2023-11-22T03:00:11;8.07;;;2.57;;
66721;SDS011;53633;49.932;10.884;2023-11-22T03:02:38;9.02;;;2.80;;
66721;SDS011;53633;49.932;10.884;2023-11-22T03:05:06;9.32;;;3.17;;
66721;SDS011;53633;49.932;10.884;2023-11-22T03:07:33;9.50;;;2.75;;
66721;SDS011;53633;49.932;10.884;2023-11-22T03:10:00;12.70;;;3.60;;
66721;SDS011;53633;49.932;10.884;2023-11-22T03:12:26;11.53;;;3.80;;
66721;SDS011;53633;49.932;10.884;2023-11-22T03:14:55;9.57;;;3.38;;
66721;SDS011;53633;49.932;10.884;2023-11-22T03:17:21;10.95;;;3.67;;
66721;SDS011;53633;49.932;10.884;2023-11-22T03:19:48;9.13;;;3.63;;
66721;SDS011;53633;49.932;10.884;2023-11-22T03:22:14;12.10;;;3.50;;
66721;SDS011;53633;49.932;10.884;2023-11-22T03:24:41;9.50;;;3.33;;
66721;SDS011;53633;49.932;10.884;2023-11-22T03:27:08;12.18;;;4.18;;
66721;SDS011;53633;49.932;10.884;2023-11-22T03:29:34;10.10;;;3.17;;
66721;SDS011;53633;49.932;10.884;2023-11-22T03:32:03;13.82;;;4.07;;
66721;SDS011;53633;49.932;10.884;2023-11-22T03:34:30;11.05;;;4.07;;
66721;SDS011;53633;49.932;10.884;2023-11-22T03:36:57;10.93;;;4.37;;
66721;SDS011;53633;49.932;10.884;2023-11-22T03:39:23;11.38;;;4.13;;
66721;SDS011;53633;49.932;10.884;2023-11-22T03:41:50;11.13;;;4.00;;
66721;SDS011;53633;49.932;10.884;2023-11-22T03:44:17;11.25;;;3.80;;
66721;SDS011;53633;49.932;10.884;2023-11-22T03:46:44;11.23;;;3.80;;
66721;SDS011;53633;49.932;10.884;2023-11-22T03:49:12;11.00;;;4.33;;
66721;SDS011;53633;49.932;10.884;2023-11-22T03:51:39;12.82;;;4.53;;
66721;SDS011;53633;49.932;10.884;2023-11-22T03:54:05;11.23;;;4.05;;
66721;SDS011;53633;49.932;10.884;2023-11-22T03:56:32;12.50;;;4.82;;
66721;SDS011;53633;49.932;10.884;2023-11-22T03:58:59;11.15;;;4.63;;
66721;SDS011;53633;49.932;10.884;2023-11-22T04:01:26;11.07;;;3.87;;
66721;SDS011;53633;49.932;10.884;2023-11-22T04:03:52;11.35;;;4.50;;
66721;SDS011;53633;49.932;10.884;2023-11-22T04:06:20;11.35;;;4.35;;
66721;SDS011;53633;49.932;10.884;2023-11-22T04:08:47;11.27;;;4.65;;
66721;SDS011;53633;49.932;10.884;2023-11-22T04:11:14;11.80;;;4.60;;
66721;SDS011;53633;49.932;10.884;2023-11-22T04:13:41;12.17;;;4.37;;
66721;SDS011;53633;49.932;10.884;2023-11-22T04:16:22;11.88;;;4.40;;
66721;SDS011;53633;49.932;10.884;2023-11-22T04:18:49;12.05;;;4.72;;
66721;SDS011;53633;49.932;10.884;2023-11-22T04:21:16;11.07;;;3.95;;
66721;SDS011;53633;49.932;10.884;2023-11-22T04:23:44;9.73;;;3.80;;
66721;SDS011;53633;49.932;10.884;2023-11-22T04:26:11;10.77;;;4.33;;
66721;SDS011;53633;49.932;10.884;2023-11-22T04:28:37;12.77;;;4.22;;
66721;SDS011;53633;49.932;10.884;2023-11-22T04:31:04;13.32;;;4.35;;
66721;SDS011;53633;49.932;10.884;2023-11-22T04:33:31;12.18;;;4.07;;
66721;SDS011;53633;49.932;10.884;2023-11-22T04:35:58;10.35;;;3.70;;
66721;SDS011;53633;49.932;10.884;2023-11-22T04:38:24;11.63;;;3.87;;
66721;SDS011;53633;49.932;10.884;2023-11-22T04:40:53;11.27;;;4.00;;
66721;SDS011;53633;49.932;10.884;2023-11-22T04:43:19;11.85;;;3.90;;
66721;SDS011;53633;49.932;10.884;2023-11-22T04:45:46;10.27;;;3.70;;
66721;SDS011;53633;49.932;10.884;2023-11-22T04:48:13;11.55;;;3.65;;
66721;SDS011;53633;49.932;10.884;2023-11-22T04:50:39;9.87;;;3.27;;
66721;SDS011;53633;49.932;10.884;2023-11-22T04:53:06;11.52;;;4.13;;
66721;SDS011;53633;49.932;10.884;2023-11-22T04:55:33;8.93;;;3.97;;
66721;SDS011;53633;49.932;10.884;2023-11-22T04:58:01;11.05;;;3.67;;
66721;SDS011;53633;49.932;10.884;2023-11-22T05:00:27;11.55;;;4.03;;
66721;SDS011;53633;49.932;10.884;2023-11-22T05:02:54;16.03;;;4.00;;
66721;SDS011;53633;49.932;10.884;2023-11-22T05:05:21;12.18;;;3.97;;
66721;SDS011;53633;49.932;10.884;2023-11-22T05:07:48;10.18;;;4.00;;
66721;SDS011;53633;49.932;10.884;2023-11-22T05:10:14;9.10;;;3.88;;
66721;SDS011;53633;49.932;10.884;2023-11-22T05:12:41;11.93;;;4.10;;
66721;SDS011;53633;49.932;10.884;2023-11-22T05:15:09;13.70;;;4.13;;
66721;SDS011;53633;49.932;10.884;2023-11-22T05:17:36;10.90;;;4.38;;
66721;SDS011;53633;49.932;10.884;2023-11-22T05:20:03;10.73;;;4.00;;
66721;SDS011;53633;49.932;10.884;2023-11-22T05:22:31;11.45;;;4.18;;
66721;SDS011;53633;49.932;10.884;2023-11-22T05:24:57;10.90;;;4.28;;
66721;SDS011;53633;49.932;10.884;2023-11-22T05:27:24;11.60;;;4.40;;
66721;SDS011;53633;49.932;10.884;2023-11-22T05:29:51;11.88;;;5.10;;
66721;SDS011;53633;49.932;10.884;2023-11-22T05:32:22;12.80;;;4.85;;
66721;SDS011;53633;49.932;10.884;2023-11-22T05:34:49;10.32;;;3.95;;
66721;SDS011;53633;49.932;10.884;2023-11-22T05:37:15;11.50;;;4.40;;
66721;SDS011;53633;49.932;10.884;2023-11-22T05:39:42;14.33;;;4.97;;
66721;SDS011;53633;49.932;10.884;2023-11-22T05:42:09;11.50;;;4.57;;
66721;SDS011;53633;49.932;10.884;2023-11-22T05:44:35;13.75;;;5.35;;
66721;SDS011;53633;49.932;10.884;2023-11-22T05:47:02;19.67;;;6.38;;
66721;SDS011;53633;49.932;10.884;2023-11-22T05:49:30;17.52;;;6.57;;
66721;SDS011;53633;49.932;10.884;2023-11-22T05:51:57;15.73;;;5.43;;
66721;SDS011;53633;49.932;10.884;2023-11-22T05:54:24;14.45;;;5.35;;
66721;SDS011;53633;49.932;10.884;2023-11-22T05:56:50;18.00;;;7.03;;
66721;SDS011;53633;49.932;10.884;2023-11-22T05:59:17;17.08;;;6.95;;
66721;SDS011;53633;49.932;10.884;2023-11-22T06:01:44;17.10;;;6.25;;
66721;SDS011;53633;49.932;10.884;2023-11-22T06:04:10;18.93;;;7.83;;
66721;SDS011;53633;49.932;10.884;2023-11-22T06:06:39;18.90;;;6.70;;
66721;SDS011;53633;49.932;10.884;2023-11-22T06:09:05;15.73;;;6.72;;
66721;SDS011;53633;49.932;10.884;2023-11-22T06:11:32;17.58;;;6.70;;
66721;SDS011;53633;49.932;10.884;2023-11-22T06:13:59;19.02;;;7.18;;
66721;SDS011;53633;49.932;10.884;2023-11-22T06:16:26;17.63;;;6.73;;
66721;SDS011;53633;49.932;10.884;2023-11-22T06:18:52;16.70;;;6.15;;
66721;SDS011;53633;49.932;10.884;2023-11-22T06:21:19;16.70;;;6.30;;
66721;SDS011;53633;49.932;10.884;2023-11-22T06:23:47;16.13;;;5.93;;
66721;SDS011;53633;49.932;10.884;2023-11-22T06:26:14;17.70;;;6.18;;
66721;SDS011;53633;49.932;10.884;2023-11-22T06:28:40;14.53;;;6.23;;
66721;SDS011;53633;49.932;10.884;2023-11-22T06:31:07;18.10;;;5.88;;
66721;SDS011;53633;49.932;10.884;2023-11-22T06:33:34;16.10;;;5.97;;
66721;SDS011;53633;49.932;10.884;2023-11-22T06:36:00;15.38;;;5.88;;
66721;SDS011;53633;49.932;10.884;2023-11-22T06:38:27;13.43;;;5.93;;
66721;SDS011;53633;49.932;10.884;2023-11-22T06:40:55;14.83;;;6.27;;
66721;SDS011;53633;49.932;10.884;2023-11-22T06:43:22;15.68;;;6.57;;
66721;SDS011;53633;49.932;10.884;2023-11-22T06:45:50;16.20;;;6.25;;
66721;SDS011;53633;49.932;10.884;2023-11-22T06:48:16;19.85;;;7.60;;
66721;SDS011;53633;49.932;10.884;2023-11-22T06:50:43;18.10;;;7.30;;
66721;SDS011;53633;49.932;10.884;2023-11-22T06:53:10;18.23;;;7.03;;
66721;SDS011;53633;49.932;10.884;2023-11-22T06:55:36;16.08;;;5.75;;
66721;SDS011;53633;49.932;10.884;2023-11-22T06:58:05;17.15;;;6.05;;
66721;SDS011;53633;49.932;10.884;2023-11-22T07:00:31;14.90;;;5.55;;
66721;SDS011;53633;49.932;10.884;2023-11-22T07:02:58;13.85;;;5.30;;
66721;SDS011;53633;49.932;10.884;2023-11-22T07:05:25;16.10;;;5.77;;
66721;SDS011;53633;49.932;10.884;2023-11-22T07:07:52;16.75;;;6.25;;
66721;SDS011;53633;49.932;10.884;2023-11-22T07:10:18;17.92;;;6.00;;
66721;SDS011;53633;49.932;10.884;2023-11-22T07:12:45;13.90;;;5.82;;
66721;SDS011;53633;49.932;10.884;2023-11-22T07:15:13;12.43;;;5.40;;
66721;SDS011;53633;49.932;10.884;2023-11-22T07:17:39;13.93;;;5.33;;
66721;SDS011;53633;49.932;10.884;2023-11-22T07:20:07;13.55;;;5.22;;
66721;SDS011;53633;49.932;10.884;2023-11-22T07:22:34;16.25;;;5.35;;
66721;SDS011;53633;49.932;10.884;2023-11-22T07:25:00;12.55;;;5.00;;
66721;SDS011;53633;49.932;10.884;2023-11-22T07:27:27;15.45;;;5.63;;
66721;SDS011;53633;49.932;10.884;2023-11-22T07:29:54;13.60;;;4.60;;
66721;SDS011;53633;49.932;10.884;2023-11-22T07:32:22;13.50;;;5.05;;
66721;SDS011;53633;49.932;10.884;2023-11-22T07:34:49;13.15;;;4.95;;
66721;SDS011;53633;49.932;10.884;2023-11-22T07:37:15;12.20;;;4.55;;
66721;SDS011;53633;49.932;10.884;2023-11-22T07:39:42;11.85;;;5.13;;
66721;SDS011;53633;49.932;10.884;2023-11-22T07:42:09;14.93;;;4.90;;
66721;SDS011;53633;49.932;10.884;2023-11-22T07:44:36;12.88;;;4.82;;
66721;SDS011;53633;49.932;10.884;2023-11-22T07:47:02;13.32;;;4.90;;
66721;SDS011;53633;49.932;10.884;2023-11-22T07:49:31;15.68;;;5.30;;
66721;SDS011;53633;49.932;10.884;2023-11-22T07:51:57;10.70;;;4.10;;
66721;SDS011;53633;49.932;10.884;2023-11-22T07:54:24;13.10;;;5.20;;
66721;SDS011;53633;49.932;10.884;2023-11-22T07:56:51;15.00;;;4.40;;
66721;SDS011;53633;49.932;10.884;2023-11-22T07:59:18;10.85;;;4.40;;
66721;SDS011;53633;49.932;10.884;2023-11-22T08:01:45;12.80;;;3.63;;
66721;SDS011;53633;49.932;10.884;2023-11-22T08:04:11;10.45;;;3.92;;
66721;SDS011;53633;49.932;10.884;2023-11-22T08:06:41;12.50;;;5.00;;
66721;SDS011;53633;49.932;10.884;2023-11-22T08:09:07;14.15;;;5.20;;
66721;SDS011;53633;49.932;10.884;2023-11-22T08:11:34;11.93;;;4.55;;
66721;SDS011;53633;49.932;10.884;2023-11-22T08:14:01;10.30;;;3.55;;
66721;SDS011;53633;49.932;10.884;2023-11-22T08:16:28;9.25;;;3.25;;
66721;SDS011;53633;49.932;10.884;2023-11-22T08:18:55;9.33;;;3.30;;
66721;SDS011;53633;49.932;10.884;2023-11-22T08:21:22;9.90;;;3.42;;
66721;SDS011;53633;49.932;10.884;2023-11-22T08:23:50;10.38;;;3.40;;
66721;SDS011;53633;49.932;10.884;2023-11-22T08:26:17;12.38;;;4.60;;
66721;SDS011;53633;49.932;10.884;2023-11-22T08:28:44;9.73;;;3.55;;
66721;SDS011;53633;49.932;10.884;2023-11-22T08:31:10;10.53;;;4.17;;
66721;SDS011;53633;49.932;10.884;2023-11-22T08:33:37;8.10;;;3.17;;
66721;SDS011;53633;49.932;10.884;2023-11-22T08:36:05;9.48;;;3.60;;
66721;SDS011;53633;49.932;10.884;2023-11-22T08:38:33;9.90;;;3.88;;
66721;SDS011;53633;49.932;10.884;2023-11-22T08:41:02;16.15;;;5.50;;
66721;SDS011;53633;49.932;10.884;2023-11-22T08:43:29;13.17;;;4.40;;
66721;SDS011;53633;49.932;10.884;2023-11-22T08:45:56;13.35;;;5.72;;
66721;SDS011;53633;49.932;10.884;2023-11-22T08:48:37;10.85;;;4.35;;
66721;SDS011;53633;49.932;10.884;2023-11-22T08:51:07;11.43;;;3.78;;
66721;SDS011;53633;49.932;10.884;2023-11-22T08:53:34;9.32;;;3.53;;
66721;SDS011;53633;49.932;10.884;2023-11-22T08:56:02;11.37;;;3.83;;
66721;SDS011;53633;49.932;10.884;2023-11-22T08:58:29;10.80;;;4.00;;
66721;SDS011;53633;49.932;10.884;2023-11-22T09:00:56;10.18;;;4.25;;
66721;SDS011;53633;49.932;10.884;2023-11-22T09:03:22;10.98;;;4.28;;
66721;SDS011;53633;49.932;10.884;2023-11-22T09:05:50;9.77;;;3.47;;
66721;SDS011;53633;49.932;10.884;2023-11-22T09:08:16;10.20;;;3.53;;
66721;SDS011;53633;49.932;10.884;2023-11-22T09:10:52;8.98;;;3.55;;
66721;SDS011;53633;49.932;10.884;2023-11-22T09:13:20;11.82;;;3.80;;
66721;SDS011;53633;49.932;10.884;2023-11-22T09:15:47;11.15;;;3.30;;
66721;SDS011;53633;49.932;10.884;2023-11-22T09:18:13;9.43;;;2.88;;
66721;SDS011;53633;49.932;10.884;2023-11-22T09:20:41;9.87;;;3.20;;
66721;SDS011;53633;49.932;10.884;2023-11-22T09:23:08;8.15;;;3.45;;
66721;SDS011;53633;49.932;10.884;2023-11-22T09:25:34;8.40;;;3.20;;
66721;SDS011;53633;49.932;10.884;2023-11-22T09:28:01;9.55;;;3.22;;
66721;SDS011;53633;49.932;10.884;2023-11-22T09:30:31;9.90;;;3.70;;
66721;SDS011;53633;49.932;10.884;2023-11-22T09:32:58;9.00;;;3.40;;
66721;SDS011;53633;49.932;10.884;2023-11-22T09:35:25;9.23;;;3.40;;
66721;SDS011;53633;49.932;10.884;2023-11-22T09:37:52;9.10;;;3.60;;
66721;SDS011;53633;49.932;10.884;2023-11-22T09:40:19;10.07;;;3.67;;
66721;SDS011;53633;49.932;10.884;2023-11-22T09:42:47;9.63;;;3.53;;
66721;SDS011;53633;49.932;10.884;2023-11-22T09:45:14;9.17;;;3.13;;
66721;SDS011;53633;49.932;10.884;2023-11-22T09:47:42;9.02;;;3.55;;
66721;SDS011;53633;49.932;10.884;2023-11-22T09:50:09;8.85;;;3.33;;
66721;SDS011;53633;49.932;10.884;2023-11-22T09:52:37;9.40;;;3.08;;
66721;SDS011;53633;49.932;10.884;2023-11-22T09:55:07;7.50;;;2.50;;
66721;SDS011;53633;49.932;10.884;2023-11-22T09:57:35;9.30;;;3.03;;
66721;SDS011;53633;49.932;10.884;2023-11-22T10:00:05;7.28;;;2.45;;
66721;SDS011;53633;49.932;10.884;2023-11-22T10:02:35;7.75;;;2.63;;
66721;SDS011;53633;49.932;10.884;2023-11-22T10:05:04;6.78;;;2.10;;
66721;SDS011;53633;49.932;10.884;2023-11-22T10:07:30;7.78;;;2.70;;
66721;SDS011;53633;49.932;10.884;2023-11-22T10:09:57;8.23;;;2.57;;
66721;SDS011;53633;49.932;10.884;2023-11-22T10:12:24;6.65;;;2.38;;
66721;SDS011;53633;49.932;10.884;2023-11-22T10:14:50;8.23;;;2.90;;
66721;SDS011;53633;49.932;10.884;2023-11-22T10:17:17;6.57;;;2.30;;
66721;SDS011;53633;49.932;10.884;2023-11-22T10:19:44;6.90;;;2.33;;
66721;SDS011;53633;49.932;10.884;2023-11-22T10:22:12;8.53;;;2.43;;
66721;SDS011;53633;49.932;10.884;2023-11-22T10:24:39;8.13;;;2.25;;
66721;SDS011;53633;49.932;10.884;2023-11-22T10:27:05;6.13;;;2.00;;
66721;SDS011;53633;49.932;10.884;2023-11-22T10:29:32;6.93;;;2.17;;
66721;SDS011;53633;49.932;10.884;2023-11-22T10:31:59;6.97;;;2.05;;
66721;SDS011;53633;49.932;10.884;2023-11-22T10:34:26;6.83;;;1.97;;
66721;SDS011;53633;49.932;10.884;2023-11-22T10:36:52;7.05;;;1.85;;
66721;SDS011;53633;49.932;10.884;2023-11-22T10:39:23;7.28;;;2.47;;
66721;SDS011;53633;49.932;10.884;2023-11-22T10:41:49;6.90;;;2.25;;
66721;SDS011;53633;49.932;10.884;2023-11-22T10:44:17;9.05;;;2.38;;
66721;SDS011;53633;49.932;10.884;2023-11-22T10:46:46;8.10;;;2.27;;
66721;SDS011;53633;49.932;10.884;2023-11-22T10:49:13;6.75;;;2.45;;
66721;SDS011;53633;49.932;10.884;2023-11-22T10:51:41;8.00;;;2.20;;
66721;SDS011;53633;49.932;10.884;2023-11-22T10:54:12;8.05;;;2.38;;
66721;SDS011;53633;49.932;10.884;2023-11-22T10:56:41;7.13;;;2.15;;
66721;SDS011;53633;49.932;10.884;2023-11-22T10:59:13;7.73;;;2.60;;
66721;SDS011;53633;49.932;10.884;2023-11-22T11:01:42;7.97;;;2.65;;
66721;SDS011;53633;49.932;10.884;2023-11-22T11:04:13;9.23;;;3.17;;
66721;SDS011;53633;49.932;10.884;2023-11-22T11:06:46;17.63;;;5.78;;
66721;SDS011;53633;49.932;10.884;2023-11-22T11:09:17;7.45;;;2.75;;
66721;SDS011;53633;49.932;10.884;2023-11-22T11:11:47;8.00;;;2.37;;
66721;SDS011;53633;49.932;10.884;2023-11-22T11:14:14;6.40;;;2.25;;
66721;SDS011;53633;49.932;10.884;2023-11-22T11:16:42;8.65;;;2.53;;
66721;SDS011;53633;49.932;10.884;2023-11-22T11:19:09;7.22;;;2.25;;
66721;SDS011;53633;49.932;10.884;2023-11-22T11:21:36;7.90;;;2.33;;
66721;SDS011;53633;49.932;10.884;2023-11-22T11:24:03;8.93;;;2.60;;
66721;SDS011;53633;49.932;10.884;2023-11-22T11:26:31;7.40;;;2.40;;
66721;SDS011;53633;49.932;10.884;2023-11-22T11:29:00;7.28;;;2.63;;
66721;SDS011;53633;49.932;10.884;2023-11-22T11:31:30;7.57;;;2.30;;
66721;SDS011;53633;49.932;10.884;2023-11-22T11:33:58;8.88;;;2.50;;
66721;SDS011;53633;49.932;10.884;2023-11-22T11:36:25;7.00;;;2.43;;
66721;SDS011;53633;49.932;10.884;2023-11-22T11:38:53;7.40;;;2.83;;
66721;SDS011;53633;49.932;10.884;2023-11-22T11:41:24;8.43;;;2.80;;
66721;SDS011;53633;49.932;10.884;2023-11-22T11:43:52;10.20;;;3.72;;
66721;SDS011;53633;49.932;10.884;2023-11-22T11:46:20;8.70;;;2.65;;
66721;SDS011;53633;49.932;10.884;2023-11-22T11:48:47;7.50;;;2.60;;
66721;SDS011;53633;49.932;10.884;2023-11-22T11:51:15;7.38;;;2.08;;
66721;SDS011;53633;49.932;10.884;2023-11-22T11:53:42;6.47;;;2.00;;
66721;SDS011;53633;49.932;10.884;2023-11-22T11:56:09;6.38;;;2.40;;
66721;SDS011;53633;49.932;10.884;2023-11-22T11:58:36;7.70;;;2.47;;
66721;SDS011;53633;49.932;10.884;2023-11-22T12:01:03;8.67;;;2.80;;
66721;SDS011;53633;49.932;10.884;2023-11-22T12:03:32;6.65;;;2.78;;
66721;SDS011;53633;49.932;10.884;2023-11-22T12:05:59;8.68;;;3.08;;
66721;SDS011;53633;49.932;10.884;2023-11-22T12:08:25;7.82;;;2.45;;
66721;SDS011;53633;49.932;10.884;2023-11-22T12:10:55;9.05;;;2.90;;
66721;SDS011;53633;49.932;10.884;2023-11-22T12:13:22;8.23;;;3.00;;
66721;SDS011;53633;49.932;10.884;2023-11-22T12:15:49;7.93;;;2.83;;
66721;SDS011;53633;49.932;10.884;2023-11-22T12:18:16;7.38;;;2.80;;
66721;SDS011;53633;49.932;10.884;2023-11-22T12:20:51;7.00;;;2.40;;
66721;SDS011;53633;49.932;10.884;2023-11-22T12:23:22;7.65;;;2.83;;
66721;SDS011;53633;49.932;10.884;2023-11-22T12:25:53;8.67;;;2.70;;
66721;SDS011;53633;49.932;10.884;2023-11-22T12:28:22;6.43;;;2.10;;
66721;SDS011;53633;49.932;10.884;2023-11-22T12:30:52;7.78;;;2.55;;
66721;SDS011;53633;49.932;10.884;2023-11-22T12:33:19;9.18;;;2.78;;
66721;SDS011;53633;49.932;10.884;2023-11-22T12:35:48;8.73;;;2.80;;
66721;SDS011;53633;49.932;10.884;2023-11-22T12:38:15;7.13;;;2.57;;
66721;SDS011;53633;49.932;10.884;2023-11-22T12:40:45;9.25;;;3.00;;
66721;SDS011;53633;49.932;10.884;2023-11-22T12:43:12;7.30;;;2.80;;
66721;SDS011;53633;49.932;10.884;2023-11-22T12:45:39;9.68;;;3.08;;
66721;SDS011;53633;49.932;10.884;2023-11-22T12:48:22;8.45;;;3.70;;
66721;SDS011;53633;49.932;10.884;2023-11-22T12:50:51;7.27;;;2.40;;
66721;SDS011;53633;49.932;10.884;2023-11-22T12:53:18;8.02;;;2.50;;
66721;SDS011;53633;49.932;10.884;2023-11-22T12:55:45;9.18;;;3.38;;
66721;SDS011;53633;49.932;10.884;2023-11-22T12:58:13;7.45;;;2.83;;
66721;SDS011;53633;49.932;10.884;2023-11-22T13:00:39;9.23;;;2.85;;
66721;SDS011;53633;49.932;10.884;2023-11-22T13:03:06;6.13;;;2.30;;
66721;SDS011;53633;49.932;10.884;2023-11-22T13:05:34;8.52;;;3.13;;
66721;SDS011;53633;49.932;10.884;2023-11-22T13:08:02;7.05;;;2.33;;
66721;SDS011;53633;49.932;10.884;2023-11-22T13:10:29;8.32;;;2.63;;
66721;SDS011;53633;49.932;10.884;2023-11-22T13:12:56;8.60;;;2.72;;
66721;SDS011;53633;49.932;10.884;2023-11-22T13:15:23;7.83;;;2.87;;
66721;SDS011;53633;49.932;10.884;2023-11-22T13:17:50;7.22;;;2.45;;
66721;SDS011;53633;49.932;10.884;2023-11-22T13:20:17;9.23;;;2.80;;
66721;SDS011;53633;49.932;10.884;2023-11-22T13:22:44;6.47;;;2.35;;
66721;SDS011;53633;49.932;10.884;2023-11-22T13:25:12;8.82;;;2.75;;
66721;SDS011;53633;49.932;10.884;2023-11-22T13:27:39;9.40;;;2.70;;
66721;SDS011;53633;49.932;10.884;2023-11-22T13:30:06;7.13;;;2.38;;
66721;SDS011;53633;49.932;10.884;2023-11-22T13:32:33;6.78;;;2.40;;
66721;SDS011;53633;49.932;10.884;2023-11-22T13:35:00;7.18;;;2.58;;
66721;SDS011;53633;49.932;10.884;2023-11-22T13:37:26;8.05;;;3.00;;
66721;SDS011;53633;49.932;10.884;2023-11-22T13:39:53;7.13;;;2.77;;
66721;SDS011;53633;49.932;10.884;2023-11-22T13:42:21;8.65;;;2.60;;
66721;SDS011;53633;49.932;10.884;2023-11-22T13:44:48;8.45;;;3.22;;
66721;SDS011;53633;49.932;10.884;2023-11-22T13:47:15;7.70;;;2.63;;
66721;SDS011;53633;49.932;10.884;2023-11-22T13:49:41;10.10;;;2.83;;
66721;SDS011;53633;49.932;10.884;2023-11-22T13:52:08;8.53;;;2.33;;
66721;SDS011;53633;49.932;10.884;2023-11-22T13:54:35;7.85;;;3.00;;
66721;SDS011;53633;49.932;10.884;2023-11-22T13:57:01;6.30;;;2.00;;
66721;SDS011;53633;49.932;10.884;2023-11-22T13:59:30;8.52;;;2.70;;
66721;SDS011;53633;49.932;10.884;2023-11-22T14:01:56;8.98;;;2.50;;
66721;SDS011;53633;49.932;10.884;2023-11-22T14:04:23;7.47;;;2.40;;
66721;SDS011;53633;49.932;10.884;2023-11-22T14:06:50;9.98;;;4.78;;
66721;SDS011;53633;49.932;10.884;2023-11-22T14:09:16;11.05;;;4.45;;
66721;SDS011;53633;49.932;10.884;2023-11-22T14:11:43;9.85;;;4.18;;
66721;SDS011;53633;49.932;10.884;2023-11-22T14:14:10;10.57;;;4.13;;
66721;SDS011;53633;49.932;10.884;2023-11-22T14:16:41;10.07;;;2.70;;
66721;SDS011;53633;49.932;10.884;2023-11-22T14:19:07;7.82;;;2.40;;
66721;SDS011;53633;49.932;10.884;2023-11-22T14:21:34;10.15;;;2.70;;
66721;SDS011;53633;49.932;10.884;2023-11-22T14:24:01;6.88;;;2.35;;
66721;SDS011;53633;49.932;10.884;2023-11-22T14:26:28;8.15;;;2.67;;
66721;SDS011;53633;49.932;10.884;2023-11-22T14:28:54;8.33;;;2.80;;